sensor_id;sensor_type;location;lat;lon;timestamp;P1;durP1;ratioP1;P2;durP2;ratioP2
68097;SDS011;54886;47.036;15.466;2023-08-30T00:03:29;1.30;;;0.65;;
68097;SDS011;54886;47.036;15.466;2023-08-30T00:05:55;1.00;;;0.60;;
68097;SDS011;54886;47.036;15.466;2023-08-30T00:08:20;3.28;;;0.60;;
68097;SDS011;54886;47.036;15.466;2023-08-30T00:10:47;1.52;;;0.73;;
68097;SDS011;54886;47.036;15.466;2023-08-30T00:13:12;1.45;;;0.60;;
68097;SDS011;54886;47.036;15.466;2023-08-30T00:15:38;2.45;;;0.80;;
68097;SDS011;54886;47.036;15.466;2023-08-30T00:18:04;5.25;;;0.90;;
68097;SDS011;54886;47.036;15.466;2023-08-30T00:23:52;1.35;;;0.88;;
68097;SDS011;54886;47.036;15.466;2023-08-30T00:26:18;4.60;;;1.00;;
68097;SDS011;54886;47.036;15.466;2023-08-30T00:28:43;1.63;;;0.80;;
68097;SDS011;54886;47.036;15.466;2023-08-30T00:31:09;3.35;;;0.95;;
68097;SDS011;54886;47.036;15.466;2023-08-30T00:33:35;4.03;;;1.00;;
68097;SDS011;54886;47.036;15.466;2023-08-30T00:39:22;1.35;;;0.88;;
68097;SDS011;54886;47.036;15.466;2023-08-30T00:45:09;2.28;;;1.02;;
68097;SDS011;54886;47.036;15.466;2023-08-30T00:47:35;4.35;;;1.00;;
68097;SDS011;54886;47.036;15.466;2023-08-30T00:53:23;2.13;;;0.95;;
68097;SDS011;54886;47.036;15.466;2023-08-30T00:59:10;3.75;;;1.05;;
68097;SDS011;54886;47.036;15.466;2023-08-30T01:04:58;1.23;;;1.08;;
68097;SDS011;54886;47.036;15.466;2023-08-30T01:07:23;3.28;;;1.00;;
68097;SDS011;54886;47.036;15.466;2023-08-30T01:09:49;2.75;;;1.17;;
68097;SDS011;54886;47.036;15.466;2023-08-30T01:15:37;5.05;;;1.30;;
68097;SDS011;54886;47.036;15.466;2023-08-30T01:18:05;1.67;;;1.10;;
68097;SDS011;54886;47.036;15.466;2023-08-30T01:20:33;3.53;;;1.10;;
68097;SDS011;54886;47.036;15.466;2023-08-30T01:23:03;1.27;;;1.15;;
68097;SDS011;54886;47.036;15.466;2023-08-30T01:28:23;3.28;;;1.20;;
68097;SDS011;54886;47.036;15.466;2023-08-30T01:30:52;2.65;;;1.10;;
68097;SDS011;54886;47.036;15.466;2023-08-30T01:33:22;6.05;;;1.10;;
68097;SDS011;54886;47.036;15.466;2023-08-30T01:35:49;1.05;;;0.93;;
68097;SDS011;54886;47.036;15.466;2023-08-30T01:41:37;2.22;;;1.20;;
68097;SDS011;54886;47.036;15.466;2023-08-30T01:44:05;2.58;;;1.08;;
68097;SDS011;54886;47.036;15.466;2023-08-30T01:46:35;1.10;;;1.00;;
68097;SDS011;54886;47.036;15.466;2023-08-30T01:49:02;2.60;;;1.00;;
68097;SDS011;54886;47.036;15.466;2023-08-30T01:51:29;3.65;;;1.40;;
68097;SDS011;54886;47.036;15.466;2023-08-30T01:53:56;2.17;;;1.13;;
68097;SDS011;54886;47.036;15.466;2023-08-30T01:56:23;3.97;;;1.30;;
68097;SDS011;54886;47.036;15.466;2023-08-30T01:58:48;4.25;;;1.20;;
68097;SDS011;54886;47.036;15.466;2023-08-30T02:01:14;1.95;;;0.98;;
68097;SDS011;54886;47.036;15.466;2023-08-30T02:07:03;1.20;;;0.90;;
68097;SDS011;54886;47.036;15.466;2023-08-30T02:09:38;2.20;;;1.10;;
68097;SDS011;54886;47.036;15.466;2023-08-30T02:12:10;3.67;;;1.17;;
68097;SDS011;54886;47.036;15.466;2023-08-30T02:14:40;2.92;;;1.00;;
68097;SDS011;54886;47.036;15.466;2023-08-30T02:17:10;2.50;;;1.02;;
68097;SDS011;54886;47.036;15.466;2023-08-30T02:19:37;1.52;;;1.10;;
68097;SDS011;54886;47.036;15.466;2023-08-30T02:22:03;5.03;;;1.10;;
68097;SDS011;54886;47.036;15.466;2023-08-30T02:24:28;3.22;;;1.20;;
68097;SDS011;54886;47.036;15.466;2023-08-30T02:26:54;1.13;;;1.02;;
68097;SDS011;54886;47.036;15.466;2023-08-30T02:32:42;2.95;;;1.00;;
68097;SDS011;54886;47.036;15.466;2023-08-30T02:38:29;1.50;;;0.82;;
68097;SDS011;54886;47.036;15.466;2023-08-30T02:40:55;1.20;;;1.02;;
68097;SDS011;54886;47.036;15.466;2023-08-30T02:43:21;1.88;;;1.02;;
68097;SDS011;54886;47.036;15.466;2023-08-30T02:45:47;2.35;;;0.85;;
68097;SDS011;54886;47.036;15.466;2023-08-30T02:48:13;1.10;;;1.00;;
68097;SDS011;54886;47.036;15.466;2023-08-30T02:57:29;4.95;;;1.13;;
68097;SDS011;54886;47.036;15.466;2023-08-30T03:03:17;1.98;;;1.00;;
68097;SDS011;54886;47.036;15.466;2023-08-30T03:09:04;1.70;;;1.02;;
68097;SDS011;54886;47.036;15.466;2023-08-30T03:14:53;3.50;;;1.20;;
68097;SDS011;54886;47.036;15.466;2023-08-30T03:17:19;3.03;;;1.00;;
68097;SDS011;54886;47.036;15.466;2023-08-30T03:19:44;2.30;;;0.70;;
68097;SDS011;54886;47.036;15.466;2023-08-30T03:22:10;5.38;;;1.10;;
68097;SDS011;54886;47.036;15.466;2023-08-30T03:24:36;2.25;;;1.00;;
68097;SDS011;54886;47.036;15.466;2023-08-30T03:27:01;2.85;;;1.20;;
68097;SDS011;54886;47.036;15.466;2023-08-30T03:29:28;2.70;;;1.10;;
68097;SDS011;54886;47.036;15.466;2023-08-30T03:35:16;1.95;;;1.10;;
68097;SDS011;54886;47.036;15.466;2023-08-30T03:37:42;3.13;;;1.25;;
68097;SDS011;54886;47.036;15.466;2023-08-30T03:40:07;1.45;;;1.20;;
68097;SDS011;54886;47.036;15.466;2023-08-30T03:45:56;5.10;;;1.17;;
68097;SDS011;54886;47.036;15.466;2023-08-30T03:48:22;1.58;;;1.00;;
68097;SDS011;54886;47.036;15.466;2023-08-30T03:50:47;4.00;;;1.20;;
68097;SDS011;54886;47.036;15.466;2023-08-30T03:53:13;2.33;;;1.05;;
68097;SDS011;54886;47.036;15.466;2023-08-30T03:55:40;2.13;;;1.27;;
68097;SDS011;54886;47.036;15.466;2023-08-30T03:58:05;1.43;;;1.20;;
68097;SDS011;54886;47.036;15.466;2023-08-30T04:00:31;3.22;;;1.10;;
68097;SDS011;54886;47.036;15.466;2023-08-30T04:06:18;1.13;;;1.02;;
68097;SDS011;54886;47.036;15.466;2023-08-30T04:08:45;2.40;;;1.10;;
68097;SDS011;54886;47.036;15.466;2023-08-30T04:11:10;1.75;;;0.98;;
68097;SDS011;54886;47.036;15.466;2023-08-30T04:13:36;3.45;;;1.30;;
68097;SDS011;54886;47.036;15.466;2023-08-30T04:16:02;4.68;;;1.48;;
68097;SDS011;54886;47.036;15.466;2023-08-30T04:21:51;2.13;;;1.10;;
68097;SDS011;54886;47.036;15.466;2023-08-30T04:24:16;0.82;;;0.82;;
68097;SDS011;54886;47.036;15.466;2023-08-30T04:26:42;1.65;;;1.10;;
68097;SDS011;54886;47.036;15.466;2023-08-30T04:32:29;2.53;;;1.00;;
68097;SDS011;54886;47.036;15.466;2023-08-30T04:34:55;3.53;;;1.10;;
68097;SDS011;54886;47.036;15.466;2023-08-30T04:37:20;3.67;;;1.40;;
68097;SDS011;54886;47.036;15.466;2023-08-30T04:39:49;4.70;;;1.40;;
68097;SDS011;54886;47.036;15.466;2023-08-30T04:42:15;3.30;;;1.40;;
68097;SDS011;54886;47.036;15.466;2023-08-30T04:44:41;2.33;;;1.30;;
68097;SDS011;54886;47.036;15.466;2023-08-30T04:47:07;1.45;;;1.30;;
68097;SDS011;54886;47.036;15.466;2023-08-30T04:49:32;1.73;;;1.17;;
68097;SDS011;54886;47.036;15.466;2023-08-30T04:51:58;3.30;;;1.33;;
68097;SDS011;54886;47.036;15.466;2023-08-30T04:54:23;3.35;;;1.23;;
68097;SDS011;54886;47.036;15.466;2023-08-30T04:56:49;3.67;;;1.50;;
68097;SDS011;54886;47.036;15.466;2023-08-30T05:02:37;1.98;;;1.10;;
68097;SDS011;54886;47.036;15.466;2023-08-30T05:08:25;2.75;;;1.25;;
68097;SDS011;54886;47.036;15.466;2023-08-30T05:10:50;3.28;;;1.17;;
68097;SDS011;54886;47.036;15.466;2023-08-30T05:13:19;5.22;;;1.48;;
68097;SDS011;54886;47.036;15.466;2023-08-30T05:15:45;5.57;;;1.52;;
68097;SDS011;54886;47.036;15.466;2023-08-30T05:18:10;4.55;;;1.70;;
68097;SDS011;54886;47.036;15.466;2023-08-30T05:23:58;1.80;;;1.65;;
68097;SDS011;54886;47.036;15.466;2023-08-30T05:26:24;3.40;;;1.83;;
68097;SDS011;54886;47.036;15.466;2023-08-30T05:28:49;4.53;;;1.88;;
68097;SDS011;54886;47.036;15.466;2023-08-30T05:34:36;4.90;;;1.77;;
68097;SDS011;54886;47.036;15.466;2023-08-30T05:37:02;2.50;;;1.50;;
68097;SDS011;54886;47.036;15.466;2023-08-30T05:39:28;1.85;;;1.42;;
68097;SDS011;54886;47.036;15.466;2023-08-30T05:41:53;5.65;;;1.67;;
68097;SDS011;54886;47.036;15.466;2023-08-30T05:44:19;2.28;;;1.60;;
68097;SDS011;54886;47.036;15.466;2023-08-30T05:46:44;4.28;;;1.58;;
68097;SDS011;54886;47.036;15.466;2023-08-30T05:49:10;1.90;;;1.58;;
68097;SDS011;54886;47.036;15.466;2023-08-30T05:54:58;4.47;;;1.52;;
68097;SDS011;54886;47.036;15.466;2023-08-30T05:57:23;4.10;;;1.50;;
68097;SDS011;54886;47.036;15.466;2023-08-30T05:59:50;2.47;;;1.60;;
68097;SDS011;54886;47.036;15.466;2023-08-30T06:05:37;2.80;;;1.55;;
68097;SDS011;54886;47.036;15.466;2023-08-30T06:08:03;2.38;;;1.33;;
68097;SDS011;54886;47.036;15.466;2023-08-30T06:10:29;1.40;;;1.30;;
68097;SDS011;54886;47.036;15.466;2023-08-30T06:12:55;4.85;;;1.23;;
68097;SDS011;54886;47.036;15.466;2023-08-30T06:15:20;1.85;;;1.30;;
68097;SDS011;54886;47.036;15.466;2023-08-30T06:21:07;5.10;;;1.48;;
68097;SDS011;54886;47.036;15.466;2023-08-30T06:23:33;2.05;;;1.23;;
68097;SDS011;54886;47.036;15.466;2023-08-30T06:25:59;5.32;;;1.60;;
68097;SDS011;54886;47.036;15.466;2023-08-30T06:28:25;2.92;;;1.38;;
68097;SDS011;54886;47.036;15.466;2023-08-30T06:30:51;2.05;;;1.30;;
68097;SDS011;54886;47.036;15.466;2023-08-30T06:36:38;1.52;;;1.35;;
68097;SDS011;54886;47.036;15.466;2023-08-30T06:39:04;4.38;;;1.40;;
68097;SDS011;54886;47.036;15.466;2023-08-30T06:41:30;1.67;;;1.42;;
68097;SDS011;54886;47.036;15.466;2023-08-30T06:43:55;2.70;;;1.33;;
68097;SDS011;54886;47.036;15.466;2023-08-30T06:46:22;3.70;;;1.48;;
68097;SDS011;54886;47.036;15.466;2023-08-30T06:52:09;2.25;;;1.30;;
68097;SDS011;54886;47.036;15.466;2023-08-30T06:54:35;2.45;;;1.60;;
68097;SDS011;54886;47.036;15.466;2023-08-30T06:57:01;1.92;;;1.40;;
68097;SDS011;54886;47.036;15.466;2023-08-30T06:59:27;3.28;;;1.70;;
68097;SDS011;54886;47.036;15.466;2023-08-30T07:01:53;2.40;;;1.60;;
68097;SDS011;54886;47.036;15.466;2023-08-30T07:04:19;3.88;;;1.50;;
68097;SDS011;54886;47.036;15.466;2023-08-30T07:06:45;3.50;;;1.45;;
68097;SDS011;54886;47.036;15.466;2023-08-30T07:12:32;3.60;;;1.45;;
68097;SDS011;54886;47.036;15.466;2023-08-30T07:14:58;1.58;;;1.27;;
68097;SDS011;54886;47.036;15.466;2023-08-30T07:17:23;2.95;;;1.35;;
68097;SDS011;54886;47.036;15.466;2023-08-30T07:23:11;3.92;;;1.58;;
68097;SDS011;54886;47.036;15.466;2023-08-30T07:25:37;4.18;;;1.40;;
68097;SDS011;54886;47.036;15.466;2023-08-30T07:28:04;3.77;;;1.70;;
68097;SDS011;54886;47.036;15.466;2023-08-30T07:30:30;5.65;;;1.70;;
68097;SDS011;54886;47.036;15.466;2023-08-30T07:32:56;3.85;;;1.58;;
68097;SDS011;54886;47.036;15.466;2023-08-30T07:38:43;3.28;;;1.55;;
68097;SDS011;54886;47.036;15.466;2023-08-30T07:41:09;4.45;;;1.80;;
68097;SDS011;54886;47.036;15.466;2023-08-30T07:43:35;4.30;;;1.85;;
68097;SDS011;54886;47.036;15.466;2023-08-30T07:46:01;4.97;;;1.60;;
68097;SDS011;54886;47.036;15.466;2023-08-30T07:48:27;4.40;;;1.70;;
68097;SDS011;54886;47.036;15.466;2023-08-30T07:54:14;1.83;;;1.35;;
68097;SDS011;54886;47.036;15.466;2023-08-30T07:56:39;5.38;;;1.52;;
68097;SDS011;54886;47.036;15.466;2023-08-30T08:02:27;3.65;;;1.60;;
68097;SDS011;54886;47.036;15.466;2023-08-30T08:08:14;2.53;;;1.40;;
68097;SDS011;54886;47.036;15.466;2023-08-30T08:14:01;4.57;;;1.58;;
68097;SDS011;54886;47.036;15.466;2023-08-30T08:16:28;1.77;;;1.10;;
68097;SDS011;54886;47.036;15.466;2023-08-30T08:18:54;2.93;;;1.30;;
68097;SDS011;54886;47.036;15.466;2023-08-30T08:24:41;3.15;;;1.35;;
68097;SDS011;54886;47.036;15.466;2023-08-30T08:30:30;4.63;;;1.40;;
68097;SDS011;54886;47.036;15.466;2023-08-30T08:32:57;2.40;;;1.20;;
68097;SDS011;54886;47.036;15.466;2023-08-30T08:38:44;2.78;;;1.30;;
68097;SDS011;54886;47.036;15.466;2023-08-30T08:44:32;3.67;;;1.40;;
68097;SDS011;54886;47.036;15.466;2023-08-30T08:50:21;3.25;;;1.40;;
68097;SDS011;54886;47.036;15.466;2023-08-30T08:52:47;2.67;;;1.20;;
68097;SDS011;54886;47.036;15.466;2023-08-30T08:55:13;1.85;;;1.20;;
68097;SDS011;54886;47.036;15.466;2023-08-30T08:57:39;1.15;;;1.08;;
68097;SDS011;54886;47.036;15.466;2023-08-30T09:00:06;1.87;;;0.93;;
68097;SDS011;54886;47.036;15.466;2023-08-30T09:05:54;2.92;;;1.10;;
68097;SDS011;54886;47.036;15.466;2023-08-30T09:08:21;1.58;;;1.05;;
68097;SDS011;54886;47.036;15.466;2023-08-30T09:10:46;1.75;;;1.30;;
68097;SDS011;54886;47.036;15.466;2023-08-30T09:16:37;2.05;;;0.77;;
68097;SDS011;54886;47.036;15.466;2023-08-30T09:19:03;1.58;;;0.95;;
68097;SDS011;54886;47.036;15.466;2023-08-30T09:21:30;2.50;;;0.97;;
68097;SDS011;54886;47.036;15.466;2023-08-30T09:24:02;0.93;;;0.80;;
68097;SDS011;54886;47.036;15.466;2023-08-30T09:26:29;2.75;;;1.08;;
68097;SDS011;54886;47.036;15.466;2023-08-30T09:32:22;1.60;;;1.00;;
68097;SDS011;54886;47.036;15.466;2023-08-30T09:34:47;1.92;;;1.00;;
68097;SDS011;54886;47.036;15.466;2023-08-30T09:40:35;1.15;;;0.80;;
68097;SDS011;54886;47.036;15.466;2023-08-30T09:46:22;1.98;;;1.00;;
68097;SDS011;54886;47.036;15.466;2023-08-30T09:52:10;1.15;;;1.05;;
68097;SDS011;54886;47.036;15.466;2023-08-30T09:54:40;1.42;;;0.90;;
68097;SDS011;54886;47.036;15.466;2023-08-30T09:57:09;2.30;;;1.00;;
68097;SDS011;54886;47.036;15.466;2023-08-30T10:02:58;1.42;;;0.88;;
68097;SDS011;54886;47.036;15.466;2023-08-30T10:05:24;3.92;;;0.90;;
68097;SDS011;54886;47.036;15.466;2023-08-30T10:07:52;2.22;;;1.00;;
68097;SDS011;54886;47.036;15.466;2023-08-30T10:10:20;1.38;;;1.08;;
68097;SDS011;54886;47.036;15.466;2023-08-30T10:12:48;0.98;;;0.90;;
68097;SDS011;54886;47.036;15.466;2023-08-30T10:18:36;1.48;;;0.82;;
68097;SDS011;54886;47.036;15.466;2023-08-30T10:21:05;2.20;;;0.90;;
68097;SDS011;54886;47.036;15.466;2023-08-30T10:23:33;1.45;;;0.80;;
68097;SDS011;54886;47.036;15.466;2023-08-30T10:26:02;0.90;;;0.90;;
68097;SDS011;54886;47.036;15.466;2023-08-30T10:28:28;4.38;;;1.00;;
68097;SDS011;54886;47.036;15.466;2023-08-30T10:30:55;1.75;;;0.98;;
68097;SDS011;54886;47.036;15.466;2023-08-30T10:33:21;2.05;;;0.70;;
68097;SDS011;54886;47.036;15.466;2023-08-30T10:35:50;1.98;;;0.90;;
68097;SDS011;54886;47.036;15.466;2023-08-30T10:38:26;0.90;;;0.77;;
68097;SDS011;54886;47.036;15.466;2023-08-30T10:44:14;1.25;;;0.80;;
68097;SDS011;54886;47.036;15.466;2023-08-30T10:46:51;0.80;;;0.80;;
68097;SDS011;54886;47.036;15.466;2023-08-30T10:49:20;1.38;;;0.80;;
68097;SDS011;54886;47.036;15.466;2023-08-30T10:52:07;0.80;;;0.75;;
68097;SDS011;54886;47.036;15.466;2023-08-30T10:54:37;1.13;;;0.93;;
68097;SDS011;54886;47.036;15.466;2023-08-30T10:57:12;0.90;;;0.90;;
68097;SDS011;54886;47.036;15.466;2023-08-30T11:02:47;0.93;;;0.75;;
68097;SDS011;54886;47.036;15.466;2023-08-30T11:08:36;0.95;;;0.75;;
68097;SDS011;54886;47.036;15.466;2023-08-30T11:14:23;0.98;;;0.90;;
68097;SDS011;54886;47.036;15.466;2023-08-30T11:27:42;0.88;;;0.80;;
68097;SDS011;54886;47.036;15.466;2023-08-30T11:30:08;1.85;;;0.88;;
68097;SDS011;54886;47.036;15.466;2023-08-30T11:32:35;1.35;;;0.93;;
68097;SDS011;54886;47.036;15.466;2023-08-30T11:35:02;2.00;;;0.90;;
68097;SDS011;54886;47.036;15.466;2023-08-30T11:40:50;0.95;;;0.95;;
68097;SDS011;54886;47.036;15.466;2023-08-30T11:46:38;0.98;;;0.90;;
68097;SDS011;54886;47.036;15.466;2023-08-30T11:49:03;1.75;;;0.98;;
68097;SDS011;54886;47.036;15.466;2023-08-30T11:54:51;2.10;;;0.93;;
68097;SDS011;54886;47.036;15.466;2023-08-30T12:00:39;2.00;;;0.85;;
68097;SDS011;54886;47.036;15.466;2023-08-30T12:06:27;1.10;;;0.90;;
68097;SDS011;54886;47.036;15.466;2023-08-30T12:12:14;1.30;;;1.20;;
68097;SDS011;54886;47.036;15.466;2023-08-30T12:14:40;2.03;;;0.88;;
68097;SDS011;54886;47.036;15.466;2023-08-30T12:17:05;1.83;;;1.15;;
68097;SDS011;54886;47.036;15.466;2023-08-30T12:19:33;1.25;;;1.00;;
68097;SDS011;54886;47.036;15.466;2023-08-30T12:22:08;4.38;;;1.10;;
68097;SDS011;54886;47.036;15.466;2023-08-30T12:24:40;1.38;;;0.95;;
68097;SDS011;54886;47.036;15.466;2023-08-30T12:27:07;0.90;;;0.80;;
68097;SDS011;54886;47.036;15.466;2023-08-30T12:29:33;1.73;;;0.95;;
68097;SDS011;54886;47.036;15.466;2023-08-30T12:31:58;1.45;;;0.90;;
68097;SDS011;54886;47.036;15.466;2023-08-30T12:37:45;1.73;;;0.90;;
68097;SDS011;54886;47.036;15.466;2023-08-30T12:43:33;1.00;;;0.90;;
68097;SDS011;54886;47.036;15.466;2023-08-30T12:45:58;1.85;;;0.95;;
68097;SDS011;54886;47.036;15.466;2023-08-30T12:48:24;0.90;;;0.90;;
68097;SDS011;54886;47.036;15.466;2023-08-30T12:50:50;1.00;;;1.00;;
68097;SDS011;54886;47.036;15.466;2023-08-30T12:53:15;1.42;;;0.95;;
68097;SDS011;54886;47.036;15.466;2023-08-30T12:55:44;1.50;;;0.80;;
68097;SDS011;54886;47.036;15.466;2023-08-30T12:58:10;1.10;;;0.90;;
68097;SDS011;54886;47.036;15.466;2023-08-30T13:00:36;3.28;;;1.08;;
68097;SDS011;54886;47.036;15.466;2023-08-30T13:03:02;0.90;;;0.90;;
68097;SDS011;54886;47.036;15.466;2023-08-30T13:08:50;1.23;;;1.05;;
68097;SDS011;54886;47.036;15.466;2023-08-30T13:11:15;1.90;;;0.90;;
68097;SDS011;54886;47.036;15.466;2023-08-30T13:13:41;1.10;;;1.00;;
68097;SDS011;54886;47.036;15.466;2023-08-30T13:16:07;2.03;;;0.90;;
68097;SDS011;54886;47.036;15.466;2023-08-30T13:18:32;1.27;;;1.00;;
68097;SDS011;54886;47.036;15.466;2023-08-30T13:24:19;3.05;;;1.20;;
68097;SDS011;54886;47.036;15.466;2023-08-30T13:26:45;0.82;;;0.82;;
68097;SDS011;54886;47.036;15.466;2023-08-30T13:29:11;3.25;;;1.35;;
68097;SDS011;54886;47.036;15.466;2023-08-30T13:31:37;2.65;;;1.00;;
68097;SDS011;54886;47.036;15.466;2023-08-30T13:34:02;2.05;;;1.02;;
68097;SDS011;54886;47.036;15.466;2023-08-30T13:39:52;3.70;;;0.82;;
68097;SDS011;54886;47.036;15.466;2023-08-30T13:42:19;2.65;;;1.00;;
68097;SDS011;54886;47.036;15.466;2023-08-30T13:44:46;2.33;;;0.82;;
68097;SDS011;54886;47.036;15.466;2023-08-30T13:47:12;1.83;;;1.20;;
68097;SDS011;54886;47.036;15.466;2023-08-30T13:52:59;5.10;;;1.50;;
68097;SDS011;54886;47.036;15.466;2023-08-30T13:55:24;1.90;;;1.20;;
68097;SDS011;54886;47.036;15.466;2023-08-30T13:57:50;2.38;;;1.08;;
68097;SDS011;54886;47.036;15.466;2023-08-30T14:00:16;2.65;;;1.10;;
68097;SDS011;54886;47.036;15.466;2023-08-30T14:02:42;1.40;;;1.08;;
68097;SDS011;54886;47.036;15.466;2023-08-30T14:08:30;2.28;;;1.10;;
68097;SDS011;54886;47.036;15.466;2023-08-30T14:10:56;4.45;;;1.40;;
68097;SDS011;54886;47.036;15.466;2023-08-30T14:16:44;1.00;;;0.93;;
68097;SDS011;54886;47.036;15.466;2023-08-30T14:19:10;3.15;;;1.10;;
68097;SDS011;54886;47.036;15.466;2023-08-30T14:21:37;2.03;;;1.00;;
68097;SDS011;54886;47.036;15.466;2023-08-30T14:24:02;3.15;;;1.13;;
68097;SDS011;54886;47.036;15.466;2023-08-30T14:26:29;3.30;;;0.98;;
68097;SDS011;54886;47.036;15.466;2023-08-30T14:28:54;1.15;;;1.00;;
68097;SDS011;54886;47.036;15.466;2023-08-30T14:31:20;3.03;;;1.15;;
68097;SDS011;54886;47.036;15.466;2023-08-30T14:37:07;2.47;;;1.20;;
68097;SDS011;54886;47.036;15.466;2023-08-30T14:42:55;3.35;;;1.30;;
68097;SDS011;54886;47.036;15.466;2023-08-30T14:45:20;1.10;;;1.00;;
68097;SDS011;54886;47.036;15.466;2023-08-30T14:47:46;2.67;;;1.38;;
68097;SDS011;54886;47.036;15.466;2023-08-30T14:50:12;2.33;;;1.30;;
68097;SDS011;54886;47.036;15.466;2023-08-30T14:52:37;5.88;;;1.17;;
68097;SDS011;54886;47.036;15.466;2023-08-30T14:55:03;2.42;;;1.10;;
68097;SDS011;54886;47.036;15.466;2023-08-30T14:57:29;4.28;;;1.23;;
68097;SDS011;54886;47.036;15.466;2023-08-30T15:03:16;2.30;;;0.93;;
68097;SDS011;54886;47.036;15.466;2023-08-30T15:05:42;1.45;;;1.02;;
68097;SDS011;54886;47.036;15.466;2023-08-30T15:11:30;3.15;;;1.10;;
68097;SDS011;54886;47.036;15.466;2023-08-30T15:13:56;2.05;;;1.20;;
68097;SDS011;54886;47.036;15.466;2023-08-30T15:16:21;1.50;;;1.10;;
68097;SDS011;54886;47.036;15.466;2023-08-30T15:18:47;1.85;;;1.10;;
68097;SDS011;54886;47.036;15.466;2023-08-30T15:21:13;2.78;;;1.10;;
68097;SDS011;54886;47.036;15.466;2023-08-30T15:27:00;1.67;;;1.38;;
68097;SDS011;54886;47.036;15.466;2023-08-30T15:29:26;2.28;;;1.40;;
68097;SDS011;54886;47.036;15.466;2023-08-30T15:31:51;3.00;;;1.52;;
68097;SDS011;54886;47.036;15.466;2023-08-30T15:34:18;2.80;;;1.25;;
68097;SDS011;54886;47.036;15.466;2023-08-30T15:36:44;2.03;;;1.20;;
68097;SDS011;54886;47.036;15.466;2023-08-30T15:39:12;1.30;;;1.08;;
68097;SDS011;54886;47.036;15.466;2023-08-30T15:41:40;1.77;;;1.10;;
68097;SDS011;54886;47.036;15.466;2023-08-30T15:44:06;1.92;;;1.20;;
68097;SDS011;54886;47.036;15.466;2023-08-30T15:49:53;1.30;;;1.13;;
68097;SDS011;54886;47.036;15.466;2023-08-30T15:52:18;2.30;;;1.42;;
68097;SDS011;54886;47.036;15.466;2023-08-30T15:54:44;2.40;;;1.42;;
68097;SDS011;54886;47.036;15.466;2023-08-30T15:57:10;4.38;;;1.30;;
68097;SDS011;54886;47.036;15.466;2023-08-30T15:59:35;1.52;;;1.30;;
68097;SDS011;54886;47.036;15.466;2023-08-30T16:05:22;1.90;;;1.33;;
68097;SDS011;54886;47.036;15.466;2023-08-30T16:07:48;4.40;;;1.23;;
68097;SDS011;54886;47.036;15.466;2023-08-30T16:10:14;4.18;;;1.40;;
68097;SDS011;54886;47.036;15.466;2023-08-30T16:16:01;3.08;;;1.20;;
68097;SDS011;54886;47.036;15.466;2023-08-30T16:18:27;1.70;;;1.40;;
68097;SDS011;54886;47.036;15.466;2023-08-30T16:20:53;2.75;;;1.30;;
68097;SDS011;54886;47.036;15.466;2023-08-30T16:26:40;3.47;;;1.20;;
68097;SDS011;54886;47.036;15.466;2023-08-30T16:32:27;3.00;;;1.00;;
68097;SDS011;54886;47.036;15.466;2023-08-30T16:34:53;2.05;;;1.20;;
68097;SDS011;54886;47.036;15.466;2023-08-30T16:40:40;1.13;;;1.00;;
68097;SDS011;54886;47.036;15.466;2023-08-30T16:46:27;0.93;;;0.93;;
68097;SDS011;54886;47.036;15.466;2023-08-30T16:52:15;1.05;;;1.00;;
68097;SDS011;54886;47.036;15.466;2023-08-30T16:54:41;1.43;;;0.97;;
68097;SDS011;54886;47.036;15.466;2023-08-30T16:57:07;2.53;;;1.10;;
68097;SDS011;54886;47.036;15.466;2023-08-30T16:59:33;1.20;;;1.00;;
68097;SDS011;54886;47.036;15.466;2023-08-30T17:01:59;1.85;;;0.90;;
68097;SDS011;54886;47.036;15.466;2023-08-30T17:07:46;2.30;;;1.10;;
68097;SDS011;54886;47.036;15.466;2023-08-30T17:10:15;1.40;;;1.30;;
68097;SDS011;54886;47.036;15.466;2023-08-30T17:12:40;1.50;;;1.27;;
68097;SDS011;54886;47.036;15.466;2023-08-30T17:18:28;2.15;;;1.40;;
68097;SDS011;54886;47.036;15.466;2023-08-30T17:20:56;1.00;;;1.00;;
68097;SDS011;54886;47.036;15.466;2023-08-30T17:23:22;1.23;;;1.13;;
68097;SDS011;54886;47.036;15.466;2023-08-30T17:25:51;1.58;;;1.00;;
68097;SDS011;54886;47.036;15.466;2023-08-30T17:28:17;5.88;;;2.38;;
68097;SDS011;54886;47.036;15.466;2023-08-30T17:30:44;1.38;;;1.25;;
68097;SDS011;54886;47.036;15.466;2023-08-30T17:33:10;4.38;;;1.67;;
68097;SDS011;54886;47.036;15.466;2023-08-30T17:38:58;1.83;;;1.17;;
68097;SDS011;54886;47.036;15.466;2023-08-30T17:41:23;1.77;;;1.40;;
68097;SDS011;54886;47.036;15.466;2023-08-30T17:43:49;2.00;;;1.20;;
68097;SDS011;54886;47.036;15.466;2023-08-30T17:46:15;2.25;;;1.30;;
68097;SDS011;54886;47.036;15.466;2023-08-30T17:48:40;2.00;;;1.10;;
68097;SDS011;54886;47.036;15.466;2023-08-30T17:51:09;2.53;;;1.23;;
68097;SDS011;54886;47.036;15.466;2023-08-30T17:53:35;1.58;;;1.40;;
68097;SDS011;54886;47.036;15.466;2023-08-30T17:59:22;1.90;;;1.20;;
68097;SDS011;54886;47.036;15.466;2023-08-30T18:01:48;1.30;;;1.20;;
68097;SDS011;54886;47.036;15.466;2023-08-30T18:04:14;1.58;;;1.27;;
68097;SDS011;54886;47.036;15.466;2023-08-30T18:10:01;4.68;;;1.50;;
68097;SDS011;54886;47.036;15.466;2023-08-30T18:15:50;1.23;;;1.13;;
68097;SDS011;54886;47.036;15.466;2023-08-30T18:18:16;1.60;;;1.23;;
68097;SDS011;54886;47.036;15.466;2023-08-30T18:24:14;2.15;;;1.30;;
68097;SDS011;54886;47.036;15.466;2023-08-30T18:30:04;1.90;;;1.25;;
68097;SDS011;54886;47.036;15.466;2023-08-30T18:35:53;3.70;;;1.55;;
68097;SDS011;54886;47.036;15.466;2023-08-30T18:38:18;1.77;;;1.35;;
68097;SDS011;54886;47.036;15.466;2023-08-30T18:40:44;3.63;;;1.85;;
68097;SDS011;54886;47.036;15.466;2023-08-30T18:46:31;3.78;;;1.73;;
68097;SDS011;54886;47.036;15.466;2023-08-30T18:48:57;2.67;;;1.63;;
68097;SDS011;54886;47.036;15.466;2023-08-30T18:51:22;3.53;;;1.70;;
68097;SDS011;54886;47.036;15.466;2023-08-30T18:53:49;5.60;;;1.77;;
68097;SDS011;54886;47.036;15.466;2023-08-30T18:56:15;5.43;;;1.70;;
68097;SDS011;54886;47.036;15.466;2023-08-30T18:58:41;3.38;;;1.60;;
68097;SDS011;54886;47.036;15.466;2023-08-30T19:01:08;5.10;;;1.75;;
68097;SDS011;54886;47.036;15.466;2023-08-30T19:06:57;2.33;;;1.50;;
68097;SDS011;54886;47.036;15.466;2023-08-30T19:12:44;3.25;;;1.60;;
68097;SDS011;54886;47.036;15.466;2023-08-30T19:15:10;1.60;;;1.50;;
68097;SDS011;54886;47.036;15.466;2023-08-30T19:20:58;3.50;;;1.65;;
68097;SDS011;54886;47.036;15.466;2023-08-30T19:26:45;3.70;;;1.70;;
68097;SDS011;54886;47.036;15.466;2023-08-30T19:32:33;4.85;;;1.45;;
68097;SDS011;54886;47.036;15.466;2023-08-30T19:34:58;4.70;;;1.83;;
68097;SDS011;54886;47.036;15.466;2023-08-30T19:37:24;5.22;;;2.15;;
68097;SDS011;54886;47.036;15.466;2023-08-30T19:43:14;2.42;;;1.50;;
68097;SDS011;54886;47.036;15.466;2023-08-30T19:45:39;3.08;;;1.58;;
68097;SDS011;54886;47.036;15.466;2023-08-30T19:48:05;2.75;;;1.67;;
68097;SDS011;54886;47.036;15.466;2023-08-30T19:53:52;4.90;;;1.70;;
68097;SDS011;54886;47.036;15.466;2023-08-30T19:56:19;5.22;;;1.60;;
68097;SDS011;54886;47.036;15.466;2023-08-30T19:58:44;2.47;;;1.60;;
68097;SDS011;54886;47.036;15.466;2023-08-30T20:04:32;4.38;;;1.75;;
68097;SDS011;54886;47.036;15.466;2023-08-30T20:06:58;4.13;;;1.67;;
68097;SDS011;54886;47.036;15.466;2023-08-30T20:09:24;2.50;;;1.55;;
68097;SDS011;54886;47.036;15.466;2023-08-30T20:11:49;3.17;;;1.80;;
68097;SDS011;54886;47.036;15.466;2023-08-30T20:14:15;6.10;;;1.80;;
68097;SDS011;54886;47.036;15.466;2023-08-30T20:16:41;3.80;;;1.70;;